Terminal Aerodrome Forecast
Issued by NWS Spokane, WA

Current Version | Previous Version | Text Only | Print | Product List | Glossary On
Versions: 1 2 3 4 5 6 7 8 9 10 11 12 13 14
000
FTUS46 KOTX 251735 CCA
TAFEAT
TAF COR
KEAT 251735Z 2518/2618 31009KT P6SM FEW080
     FM252000 26006KT P6SM SCT070 BKN120 OVC150
     FM260300 31010KT P6SM VCSH OVC080
     FM260800 32005KT P6SM FEW200=

USA.gov is the U.S. government's official web portal to all federal, state and local government web resources and services.